Time;durP1;ratioP1;P1;durP2;ratioP2;P2;SDS_P1;SDS_P2;PMS_P1;PMS_P2;Temp;Humidity;BMP_temperature;BMP_pressure;BME280_temperature;BME280_humidity;BME280_pressure;Samples;Min_cycle;Max_cycle;Signal;HPM_P1;HPM_P2
2023/12/20 00:01:07;;;;;;;;;;;;;;;22.51;35.40;101794.72;4233786;28;20010;-65
2023/12/20 00:03:13;;;;;;;;;;;;;;;22.49;35.04;101800.16;4233685;28;19920;-65
2023/12/20 00:05:15;;;;;;;;;;;;;;;22.47;35.41;101799.44;4233894;28;19927;-65
2023/12/20 00:07:16;;;;;;;;;;;;;;;22.46;35.44;101801.25;4233639;28;19923;-65
2023/12/20 00:09:18;;;;;;;;;;;;;;;22.46;35.13;101811.13;4233830;28;19919;-65
2023/12/20 00:11:20;;;;;;;;;;;;;;;22.47;35.24;101819.03;4233523;28;19919;-65
2023/12/20 00:13:21;;;;;;;;;;;;;;;22.48;35.42;101825.28;4233665;28;19955;-65
2023/12/20 00:15:23;;;;;;;;;;;;;;;22.48;35.22;101825.28;4233693;28;19919;-65
2023/12/20 00:17:24;;;;;;;;;;;;;;;22.49;35.35;101825.16;4233736;28;19919;-66
2023/12/20 00:19:26;;;;;;;;;;;;;;;22.49;35.12;101821.63;4233854;28;19982;-65
2023/12/20 00:21:27;;;;;;;;;;;;;;;22.48;35.11;101822.59;4233611;28;20026;-65
2023/12/20 00:23:29;;;;;;;;;;;;;;;22.47;35.29;101826.25;4233623;28;20456;-65
2023/12/20 00:25:35;;;;;;;;;;;;;;;22.46;35.14;101835.25;4232788;28;19947;-65
2023/12/20 00:27:37;;;;;;;;;;;;;;;22.44;35.21;101835.34;4233314;28;19920;-65
2023/12/20 00:29:38;;;;;;;;;;;;;;;22.42;35.37;101848.00;4233493;27;20336;-65
2023/12/20 00:31:40;;;;;;;;;;;;;;;22.41;35.38;101834.72;4233364;28;20306;-65
2023/12/20 00:33:43;;;;;;;;;;;;;;;22.41;35.28;101835.56;4232324;28;19919;-65
2023/12/20 00:35:45;;;;;;;;;;;;;;;22.44;35.30;101830.00;4232186;28;19973;-65
2023/12/20 00:37:47;;;;;;;;;;;;;;;22.45;35.14;101841.56;4233286;28;20018;-65
2023/12/20 00:39:48;;;;;;;;;;;;;;;22.43;34.89;101833.63;4232812;28;19973;-65
2023/12/20 00:41:50;;;;;;;;;;;;;;;22.42;35.00;101839.94;4233262;28;19980;-63
2023/12/20 00:43:51;;;;;;;;;;;;;;;22.38;34.79;101837.53;4233476;28;19920;-65
2023/12/20 00:45:53;;;;;;;;;;;;;;;22.34;34.76;101840.41;4232984;28;19919;-65
2023/12/20 00:47:54;;;;;;;;;;;;;;;22.30;34.70;101841.59;4233028;28;19965;-65
2023/12/20 00:49:56;;;;;;;;;;;;;;;22.27;34.73;101843.63;4233155;28;19968;-65
2023/12/20 00:51:58;;;;;;;;;;;;;;;22.26;34.64;101845.47;4233325;28;20382;-65
2023/12/20 00:53:59;;;;;;;;;;;;;;;22.26;34.65;101841.91;4232698;28;19920;-64
2023/12/20 00:56:01;;;;;;;;;;;;;;;22.28;34.64;101843.53;4233219;27;20365;-65
2023/12/20 00:58:02;;;;;;;;;;;;;;;22.30;34.34;101844.28;4233021;28;19926;-64
2023/12/20 01:00:04;;;;;;;;;;;;;;;22.32;34.63;101841.50;4232983;28;19965;-65
2023/12/20 01:02:05;;;;;;;;;;;;;;;22.30;34.67;101846.97;4233003;28;20310;-65
2023/12/20 01:04:07;;;;;;;;;;;;;;;22.30;34.20;101864.88;4233107;28;19965;-65
2023/12/20 01:06:09;;;;;;;;;;;;;;;22.29;34.35;101849.75;4232940;28;20021;-65
2023/12/20 01:08:10;;;;;;;;;;;;;;;22.27;34.37;101840.94;4232636;27;20286;-65
2023/12/20 01:10:12;;;;;;;;;;;;;;;22.25;34.28;101851.78;4231949;28;19949;-64
2023/12/20 01:12:13;;;;;;;;;;;;;;;22.23;34.21;101853.69;4232736;28;19927;-65
2023/12/20 01:14:20;;;;;;;;;;;;;;;22.23;34.03;101859.06;4232961;28;19920;-65
2023/12/20 01:16:22;;;;;;;;;;;;;;;22.23;34.21;101872.47;4231483;28;20105;-65
2023/12/20 01:18:23;;;;;;;;;;;;;;;22.25;34.15;101869.66;4232665;28;20310;-63
2023/12/20 01:20:25;;;;;;;;;;;;;;;22.26;34.21;101874.06;4232584;28;19920;-65
2023/12/20 01:22:27;;;;;;;;;;;;;;;22.26;34.34;101877.63;4232166;27;19924;-64
2023/12/20 01:24:28;;;;;;;;;;;;;;;22.27;34.20;101875.78;4232438;28;19920;-65
2023/12/20 01:26:30;;;;;;;;;;;;;;;22.19;33.95;101860.25;4232593;28;19920;-64
2023/12/20 01:28:31;;;;;;;;;;;;;;;22.25;33.99;101883.06;4232619;28;19919;-65
2023/12/20 01:30:33;;;;;;;;;;;;;;;22.23;34.17;101869.78;4232799;28;19920;-63
2023/12/20 01:32:34;;;;;;;;;;;;;;;22.23;33.91;101875.13;4232579;28;19919;-64
2023/12/20 01:34:36;;;;;;;;;;;;;;;22.21;34.12;101870.84;4232576;28;20325;-64
2023/12/20 01:36:38;;;;;;;;;;;;;;;22.20;34.12;101861.09;4232470;28;19920;-65
2023/12/20 01:38:39;;;;;;;;;;;;;;;22.22;34.04;101862.69;4231791;28;19919;-64
2023/12/20 01:40:41;;;;;;;;;;;;;;;22.24;34.05;101867.97;4232477;28;19925;-64
2023/12/20 01:42:42;;;;;;;;;;;;;;;22.24;33.86;101867.97;4232239;28;19919;-65
2023/12/20 01:44:44;;;;;;;;;;;;;;;22.25;34.05;101873.22;4232513;28;19919;-65
2023/12/20 01:46:46;;;;;;;;;;;;;;;22.26;33.86;101876.75;4232175;28;19919;-65
2023/12/20 01:48:53;;;;;;;;;;;;;;;22.26;34.00;101882.09;4232225;28;19946;-65
2023/12/20 01:51:00;;;;;;;;;;;;;;;22.24;33.87;101879.53;4232094;28;19969;-65
2023/12/20 01:53:02;;;;;;;;;;;;;;;22.24;33.79;101884.06;4231747;28;20301;-65
2023/12/20 01:55:11;;;;;;;;;;;;;;;22.21;33.85;101885.09;4232309;28;19926;-65
2023/12/20 01:57:13;;;;;;;;;;;;;;;22.18;33.92;101885.31;4231974;28;19919;-65
2023/12/20 01:59:14;;;;;;;;;;;;;;;22.20;34.07;101883.41;4231929;28;19958;-65
2023/12/20 02:01:16;;;;;;;;;;;;;;;22.22;33.73;101889.50;4232118;28;19937;-65
2023/12/20 02:03:18;;;;;;;;;;;;;;;22.25;33.60;101897.34;4231911;28;19976;-65
2023/12/20 02:05:20;;;;;;;;;;;;;;;22.28;33.72;101898.94;4232145;28;20290;-65
2023/12/20 02:07:22;;;;;;;;;;;;;;;22.30;33.87;101899.72;4231815;28;19926;-65
2023/12/20 02:09:24;;;;;;;;;;;;;;;22.30;33.69;101902.41;4231656;28;19919;-65
2023/12/20 02:11:26;;;;;;;;;;;;;;;22.29;33.79;101898.00;4231986;28;19955;-65
2023/12/20 02:13:27;;;;;;;;;;;;;;;22.28;33.89;101898.94;4231894;28;19923;-64
2023/12/20 02:15:29;;;;;;;;;;;;;;;22.27;33.61;101902.59;4231736;28;20390;-65
2023/12/20 02:17:31;;;;;;;;;;;;;;;22.26;33.83;101911.59;4231671;28;19919;-65
2023/12/20 02:19:33;;;;;;;;;;;;;;;22.25;33.66;101915.22;4231721;28;19920;-65
2023/12/20 02:21:35;;;;;;;;;;;;;;;22.25;33.70;101917.91;4231645;27;19926;-65
2023/12/20 02:23:36;;;;;;;;;;;;;;;22.27;33.80;101922.22;4231723;28;19943;-65
2023/12/20 02:25:38;;;;;;;;;;;;;;;22.29;33.83;101916.75;4231532;28;20010;-64
2023/12/20 02:27:39;;;;;;;;;;;;;;;22.31;33.59;101914.84;4231648;28;20378;-64
2023/12/20 02:29:41;;;;;;;;;;;;;;;22.31;33.68;101923.72;4231634;28;20014;-65
2023/12/20 02:31:42;;;;;;;;;;;;;;;22.30;33.70;101919.31;4231672;28;19919;-65
2023/12/20 02:33:44;;;;;;;;;;;;;;;22.30;33.52;101921.16;4231626;28;19965;-64
2023/12/20 02:35:46;;;;;;;;;;;;;;;22.29;33.73;101920.28;4231146;28;19961;-64
2023/12/20 02:37:47;;;;;;;;;;;;;;;22.28;33.70;101917.72;4231360;28;19924;-64
2023/12/20 02:39:49;;;;;;;;;;;;;;;22.27;33.42;101924.03;4231350;28;19955;-64
2023/12/20 02:41:50;;;;;;;;;;;;;;;22.25;33.76;101924.13;4231528;28;19943;-64
2023/12/20 02:43:52;;;;;;;;;;;;;;;22.27;33.47;101932.06;4231472;28;20006;-64
2023/12/20 02:45:53;;;;;;;;;;;;;;;22.27;33.64;101927.59;4231462;28;20378;-63
2023/12/20 02:47:55;;;;;;;;;;;;;;;22.28;33.45;101926.59;4231259;28;19965;-62
2023/12/20 02:49:57;;;;;;;;;;;;;;;22.29;33.77;101931.00;4229671;28;19963;-64
2023/12/20 02:51:58;;;;;;;;;;;;;;;22.29;33.62;101922.13;4231304;28;19954;-64
2023/12/20 02:54:00;;;;;;;;;;;;;;;22.28;33.48;101915.88;4231311;28;20018;-65
2023/12/20 02:56:01;;;;;;;;;;;;;;;22.28;33.51;101923.06;4231286;28;20390;-62
2023/12/20 02:58:03;;;;;;;;;;;;;;;22.27;33.55;101929.38;4231332;28;19943;-65
2023/12/20 03:00:05;;;;;;;;;;;;;;;22.26;33.53;101922.31;4230082;28;19947;-65
2023/12/20 03:02:07;;;;;;;;;;;;;;;22.23;33.77;101918.00;4231158;28;20006;-62
2023/12/20 03:04:08;;;;;;;;;;;;;;;22.23;33.48;101925.19;4231199;28;20294;-65
2023/12/20 03:06:10;;;;;;;;;;;;;;;22.24;33.62;101933.13;4231126;28;19923;-65
2023/12/20 03:08:12;;;;;;;;;;;;;;;22.26;33.39;101933.91;4231034;28;19927;-65
2023/12/20 03:10:13;;;;;;;;;;;;;;;22.28;33.29;101931.09;4230823;28;19919;-65
2023/12/20 03:12:24;;;;;;;;;;;;;;;22.29;33.31;101933.69;4230908;28;19919;-64
2023/12/20 03:14:25;;;;;;;;;;;;;;;22.29;33.27;101936.38;4230902;28;19919;-66
2023/12/20 03:16:27;;;;;;;;;;;;;;;22.29;33.17;101920.28;4230925;28;19923;-64
2023/12/20 03:18:28;;;;;;;;;;;;;;;22.28;33.20;101917.72;4230753;28;19951;-64
2023/12/20 03:20:33;;;;;;;;;;;;;;;22.26;33.17;101925.88;4230855;28;19945;-64
2023/12/20 03:22:35;;;;;;;;;;;;;;;22.24;33.48;101929.59;4231011;28;19927;-64
2023/12/20 03:24:37;;;;;;;;;;;;;;;22.23;33.24;101938.59;4229541;28;19920;-65
2023/12/20 03:26:38;;;;;;;;;;;;;;;22.23;33.25;101938.59;4230796;28;19930;-64
2023/12/20 03:28:40;;;;;;;;;;;;;;;22.24;33.46;101929.59;4230742;28;20358;-64
2023/12/20 03:30:41;;;;;;;;;;;;;;;22.24;33.31;101913.53;4230883;28;19920;-65
2023/12/20 03:32:43;;;;;;;;;;;;;;;22.25;33.22;101916.09;4230557;28;19923;-65
2023/12/20 03:34:45;;;;;;;;;;;;;;;22.27;33.48;101916.00;4230289;28;19920;-65
2023/12/20 03:36:47;;;;;;;;;;;;;;;22.28;33.15;101925.75;4230880;28;20354;-64
2023/12/20 03:38:49;;;;;;;;;;;;;;;22.27;33.07;101934.75;4230502;28;20022;-65
2023/12/20 03:40:50;;;;;;;;;;;;;;;22.26;33.23;101933.91;4229461;28;20010;-64
2023/12/20 03:42:52;;;;;;;;;;;;;;;22.25;33.10;101920.59;4230805;28;19924;-63
2023/12/20 03:44:54;;;;;;;;;;;;;;;22.22;33.31;101931.53;4230816;28;19920;-65
2023/12/20 03:46:55;;;;;;;;;;;;;;;22.20;33.16;101933.44;4230565;28;20440;-65
2023/12/20 03:48:57;;;;;;;;;;;;;;;22.21;33.55;101935.16;4230521;28;19919;-65
2023/12/20 03:50:58;;;;;;;;;;;;;;;22.23;33.15;101927.88;4230525;28;19924;-65
2023/12/20 03:53:00;;;;;;;;;;;;;;;22.25;32.99;101933.97;4230708;28;19933;-65
2023/12/20 03:55:01;;;;;;;;;;;;;;;22.26;33.09;101939.25;4230544;28;19920;-65
2023/12/20 03:57:03;;;;;;;;;;;;;;;22.27;33.22;101945.47;4229216;28;19928;-64
2023/12/20 03:59:05;;;;;;;;;;;;;;;22.27;33.03;101940.09;4230474;28;19920;-65
2023/12/20 04:01:13;;;;;;;;;;;;;;;22.27;33.01;101934.75;4230704;28;19919;-65
2023/12/20 04:03:14;;;;;;;;;;;;;;;22.25;33.10;101936.66;4230093;28;20007;-64
2023/12/20 04:05:16;;;;;;;;;;;;;;;22.23;33.22;101936.78;4230611;28;19989;-64
2023/12/20 04:07:18;;;;;;;;;;;;;;;22.22;32.85;101935.03;4230641;28;19923;-64
2023/12/20 04:09:20;;;;;;;;;;;;;;;22.21;33.05;101929.78;4230506;28;19920;-63
2023/12/20 04:11:21;;;;;;;;;;;;;;;22.21;33.06;101932.47;4230458;28;19919;-64
2023/12/20 04:13:23;;;;;;;;;;;;;;;22.23;33.09;101930.56;4230583;28;19919;-64
2023/12/20 04:15:25;;;;;;;;;;;;;;;22.25;33.20;101933.97;4230561;28;19919;-64
2023/12/20 04:17:26;;;;;;;;;;;;;;;22.26;32.83;101938.38;4229907;28;19919;-64
2023/12/20 04:19:28;;;;;;;;;;;;;;;22.26;33.11;101933.91;4230385;28;19955;-65
2023/12/20 04:21:30;;;;;;;;;;;;;;;22.26;32.87;101928.53;4230409;28;19930;-64
2023/12/20 04:23:31;;;;;;;;;;;;;;;22.27;32.96;101929.38;4230554;28;19919;-63
2023/12/20 04:25:33;;;;;;;;;;;;;;;22.23;32.91;101936.78;4230040;28;19993;-64
2023/12/20 04:27:34;;;;;;;;;;;;;;;22.22;32.67;101943.09;4230494;28;19919;-64
2023/12/20 04:29:36;;;;;;;;;;;;;;;22.20;33.05;101944.16;4230209;28;19964;-64
2023/12/20 04:31:37;;;;;;;;;;;;;;;22.18;32.87;101947.78;4230093;28;19926;-65
2023/12/20 04:33:39;;;;;;;;;;;;;;;22.19;32.93;101951.34;4230270;28;19924;-64
2023/12/20 04:35:42;;;;;;;;;;;;;;;22.21;33.11;101956.59;4230448;28;20414;-65
2023/12/20 04:37:44;;;;;;;;;;;;;;;22.23;32.80;101950.16;4230143;28;19919;-64
2023/12/20 04:39:45;;;;;;;;;;;;;;;22.24;32.97;101937.66;4230399;28;19919;-65
2023/12/20 04:41:50;;;;;;;;;;;;;;;22.24;32.91;101935.81;4230169;28;19920;-65
2023/12/20 04:43:51;;;;;;;;;;;;;;;22.24;32.73;101926.94;4230333;28;19923;-65
2023/12/20 04:45:53;;;;;;;;;;;;;;;22.24;32.75;101929.59;4231406;28;19962;-64
2023/12/20 04:47:55;;;;;;;;;;;;;;;22.22;32.96;101926.16;4233297;28;19919;-65
2023/12/20 04:49:56;;;;;;;;;;;;;;;22.18;32.75;101931.72;4233096;28;20014;-64
2023/12/20 04:51:58;;;;;;;;;;;;;;;22.17;32.81;101929.97;4233277;27;19920;-63
2023/12/20 04:53:59;;;;;;;;;;;;;;;22.18;33.00;101936.22;4233030;28;19923;-64
2023/12/20 04:56:01;;;;;;;;;;;;;;;22.18;32.75;101938.91;4232987;28;20010;-65
2023/12/20 04:58:02;;;;;;;;;;;;;;;22.22;32.94;101944.91;4233121;28;19962;-64
2023/12/20 05:00:05;;;;;;;;;;;;;;;22.24;32.87;101945.69;4232913;27;20294;-64
2023/12/20 05:02:06;;;;;;;;;;;;;;;22.23;32.60;101939.44;4233098;28;19970;-64
2023/12/20 05:04:08;;;;;;;;;;;;;;;22.25;32.65;101939.34;4233162;28;19919;-64
2023/12/20 05:06:10;;;;;;;;;;;;;;;22.24;32.63;101937.66;4233087;28;19928;-64
2023/12/20 05:08:11;;;;;;;;;;;;;;;22.22;32.61;101945.75;4232990;28;19931;-64
2023/12/20 05:10:13;;;;;;;;;;;;;;;22.20;33.04;101941.47;4232854;28;19923;-64
2023/12/20 05:12:15;;;;;;;;;;;;;;;22.17;32.64;101945.22;4232821;27;20310;-64
2023/12/20 05:14:16;;;;;;;;;;;;;;;22.15;32.91;101953.34;4232949;28;19926;-64
2023/12/20 05:16:18;;;;;;;;;;;;;;;22.16;32.89;101956.88;4232402;28;20042;-64
2023/12/20 05:18:21;;;;;;;;;;;;;;;22.15;32.65;101948.00;4232756;28;19959;-64
2023/12/20 05:20:23;;;;;;;;;;;;;;;22.17;32.64;101951.41;4232810;28;19919;-64
2023/12/20 05:22:25;;;;;;;;;;;;;;;22.20;32.48;101957.53;4232605;28;19945;-63
2023/12/20 05:24:26;;;;;;;;;;;;;;;22.22;32.74;101956.47;4232627;28;20394;-65
2023/12/20 05:26:29;;;;;;;;;;;;;;;22.23;32.73;101952.84;4232659;28;19947;-64
2023/12/20 05:28:31;;;;;;;;;;;;;;;22.22;32.80;101951.13;4232555;28;19980;-64
2023/12/20 05:30:32;;;;;;;;;;;;;;;22.21;32.63;101948.56;4230742;28;19926;-65
2023/12/20 05:32:34;;;;;;;;;;;;;;;22.18;32.55;101946.94;4232591;27;19920;-64
2023/12/20 05:34:36;;;;;;;;;;;;;;;22.16;32.77;101952.41;4232641;28;20443;-66
2023/12/20 05:36:38;;;;;;;;;;;;;;;22.16;32.75;101956.88;4232401;28;19926;-64
2023/12/20 05:38:40;;;;;;;;;;;;;;;22.07;32.69;101952.16;4232498;28;19949;-66
2023/12/20 05:40:42;;;;;;;;;;;;;;;22.17;32.65;101963.97;4232446;28;20386;-66
2023/12/20 05:42:43;;;;;;;;;;;;;;;22.19;32.51;101962.06;4232155;27;19920;-65
2023/12/20 05:44:45;;;;;;;;;;;;;;;22.20;32.45;101958.44;4231881;28;19973;-63
2023/12/20 05:46:47;;;;;;;;;;;;;;;22.20;32.50;101954.88;4230523;28;20025;-63
2023/12/20 05:48:48;;;;;;;;;;;;;;;22.21;32.49;101959.28;4232165;28;19958;-63
2023/12/20 05:50:50;;;;;;;;;;;;;;;22.20;32.31;101965.59;4232261;28;19931;-63
2023/12/20 05:52:52;;;;;;;;;;;;;;;22.18;32.50;101966.53;4232194;28;19981;-63
2023/12/20 05:54:53;;;;;;;;;;;;;;;22.16;32.46;101971.16;4232213;28;20014;-63
2023/12/20 05:56:55;;;;;;;;;;;;;;;22.15;32.63;101971.25;4231833;28;19920;-64
2023/12/20 05:58:56;;;;;;;;;;;;;;;22.14;32.60;101972.19;4231929;28;19919;-64
2023/12/20 06:00:58;;;;;;;;;;;;;;;22.13;32.65;101966.00;4232153;28;20401;-64
2023/12/20 06:02:59;;;;;;;;;;;;;;;22.16;32.43;101972.97;4231914;28;20018;-63
2023/12/20 06:05:01;;;;;;;;;;;;;;;22.18;32.50;101979.09;4232114;28;19955;-63
2023/12/20 06:07:03;;;;;;;;;;;;;;;22.19;32.69;101986.19;4231803;28;19926;-64
2023/12/20 06:09:05;;;;;;;;;;;;;;;22.20;32.57;101987.03;4232087;28;20406;-64
2023/12/20 06:11:06;;;;;;;;;;;;;;;22.18;32.55;101977.25;4231801;28;19927;-64
2023/12/20 06:13:08;;;;;;;;;;;;;;;22.19;32.45;101986.19;4231631;28;19924;-64
2023/12/20 06:15:09;;;;;;;;;;;;;;;22.18;32.33;101990.66;4231707;28;20325;-65
2023/12/20 06:17:11;;;;;;;;;;;;;;;22.15;32.17;101987.31;4231903;28;19919;-64
2023/12/20 06:19:12;;;;;;;;;;;;;;;22.12;32.39;101985.69;4231857;28;20353;-64
2023/12/20 06:21:14;;;;;;;;;;;;;;;22.13;32.39;101987.41;4231707;28;19919;-63
2023/12/20 06:23:16;;;;;;;;;;;;;;;22.14;32.44;101983.78;4231690;28;20287;-64
2023/12/20 06:25:17;;;;;;;;;;;;;;;22.16;32.53;101986.38;4231640;28;20350;-65
2023/12/20 06:27:19;;;;;;;;;;;;;;;22.16;32.56;101978.31;4231226;28;19951;-64
2023/12/20 06:29:21;;;;;;;;;;;;;;;22.18;32.10;101979.09;4231493;28;19971;-64
2023/12/20 06:31:22;;;;;;;;;;;;;;;22.18;32.31;101984.44;4231481;28;20010;-65
2023/12/20 06:33:24;;;;;;;;;;;;;;;22.16;32.28;101979.19;4231546;28;19919;-64
2023/12/20 06:35:25;;;;;;;;;;;;;;;22.16;32.45;101986.38;4231531;28;19919;-64
2023/12/20 06:37:27;;;;;;;;;;;;;;;22.14;32.19;101983.78;4231239;28;19920;-64
2023/12/20 06:39:30;;;;;;;;;;;;;;;22.13;32.48;101983.91;4231245;28;19927;-64
2023/12/20 06:41:32;;;;;;;;;;;;;;;22.10;32.59;101984.09;4230996;28;19970;-64
2023/12/20 06:43:33;;;;;;;;;;;;;;;22.09;32.28;101983.22;4231414;28;19998;-64
2023/12/20 06:45:50;;;;;;;;;;;;;;;22.13;32.23;101986.56;4231424;28;19951;-64
2023/12/20 06:47:52;;;;;;;;;;;;;;;22.14;32.54;101982.91;4231282;28;19920;-64
2023/12/20 06:49:54;;;;;;;;;;;;;;;22.15;32.28;101992.69;4231329;28;20423;-64
2023/12/20 06:51:56;;;;;;;;;;;;;;;22.16;32.23;101997.06;4231102;28;20374;-64
2023/12/20 06:53:57;;;;;;;;;;;;;;;22.16;32.19;101997.06;4230993;28;19994;-63
2023/12/20 06:55:59;;;;;;;;;;;;;;;22.15;32.17;101993.56;4230779;28;19926;-64
2023/12/20 06:58:01;;;;;;;;;;;;;;;22.14;32.29;101993.63;4231145;28;19923;-63
2023/12/20 07:00:03;;;;;;;;;;;;;;;22.13;32.41;101998.13;4230833;28;20024;-64
2023/12/20 07:02:05;;;;;;;;;;;;;;;22.09;32.52;101991.28;4231004;28;19919;-64
2023/12/20 07:04:07;;;;;;;;;;;;;;;22.07;32.51;101998.53;4230902;28;19919;-64
2023/12/20 07:06:08;;;;;;;;;;;;;;;22.11;32.14;102004.56;4231067;28;20408;-64
2023/12/20 07:08:10;;;;;;;;;;;;;;;22.12;32.42;102000.94;4230232;28;19924;-64
2023/12/20 07:10:12;;;;;;;;;;;;;;;22.14;32.48;102005.22;4230843;28;20390;-64
2023/12/20 07:12:14;;;;;;;;;;;;;;;22.13;32.20;101998.13;4230479;28;19920;-63
2023/12/20 07:14:15;;;;;;;;;;;;;;;22.14;32.22;102002.53;4230962;28;20022;-64
2023/12/20 07:16:17;;;;;;;;;;;;;;;22.14;32.42;102012.38;4230712;28;19919;-64
2023/12/20 07:18:18;;;;;;;;;;;;;;;22.14;32.39;102012.38;4230858;28;20014;-64
2023/12/20 07:20:20;;;;;;;;;;;;;;;22.13;32.14;102008.84;4230954;28;19980;-64
2023/12/20 07:22:22;;;;;;;;;;;;;;;22.11;32.20;102010.75;4231014;28;19920;-64
2023/12/20 07:24:23;;;;;;;;;;;;;;;22.09;32.29;102020.75;4230694;28;19920;-64
2023/12/20 07:26:25;;;;;;;;;;;;;;;22.08;32.41;102023.50;4230567;28;19920;-63
2023/12/20 07:28:26;;;;;;;;;;;;;;;22.09;32.37;102026.09;4230643;28;19926;-63
2023/12/20 07:30:28;;;;;;;;;;;;;;;22.09;32.33;102028.78;4230505;28;19919;-64
2023/12/20 07:32:30;;;;;;;;;;;;;;;22.12;32.11;102023.22;4230913;28;19920;-64
2023/12/20 07:34:31;;;;;;;;;;;;;;;22.14;32.14;102015.94;4230534;28;19981;-64
2023/12/20 07:36:35;;;;;;;;;;;;;;;22.14;32.04;102017.75;4230949;28;19920;-64
2023/12/20 07:38:37;;;;;;;;;;;;;;;22.15;32.02;102019.47;4230601;28;19919;-64
2023/12/20 07:40:39;;;;;;;;;;;;;;;22.13;32.08;102021.41;4230766;28;20283;-64
2023/12/20 07:42:40;;;;;;;;;;;;;;;22.12;31.98;102020.53;4230906;28;19943;-64
2023/12/20 07:44:42;;;;;;;;;;;;;;;22.11;32.05;102032.19;4230599;28;19964;-64
2023/12/20 07:46:43;;;;;;;;;;;;;;;22.09;32.52;102033.25;4229569;28;20402;-64
2023/12/20 07:48:46;;;;;;;;;;;;;;;22.08;32.09;102028.84;4229548;28;19919;-64
2023/12/20 07:50:47;;;;;;;;;;;;;;;22.09;32.10;102039.50;4230691;28;19970;-64
2023/12/20 07:52:49;;;;;;;;;;;;;;;22.10;32.00;102034.97;4230686;28;19951;-64
2023/12/20 07:54:51;;;;;;;;;;;;;;;22.13;31.89;102030.28;4230305;28;19923;-64
2023/12/20 07:56:52;;;;;;;;;;;;;;;22.14;32.17;102040.06;4230715;28;20341;-64
2023/12/20 07:58:54;;;;;;;;;;;;;;;22.14;32.03;102040.06;4230765;28;19926;-64
2023/12/20 08:00:58;;;;;;;;;;;;;;;22.13;31.99;102018.72;4230505;28;19927;-64
2023/12/20 08:02:59;;;;;;;;;;;;;;;22.13;32.14;102013.38;4230649;28;19927;-64
2023/12/20 08:05:01;;;;;;;;;;;;;;;22.12;32.05;102028.56;4229255;28;19924;-64
2023/12/20 08:07:03;;;;;;;;;;;;;;;22.10;31.91;102034.97;4230438;28;19920;-64
2023/12/20 08:09:05;;;;;;;;;;;;;;;22.09;32.35;102022.53;4227984;28;19965;-66
2023/12/20 08:11:07;;;;;;;;;;;;;;;22.09;31.99;102011.81;4235975;28;19927;-65
2023/12/20 08:13:09;;;;;;;;;;;;;;;22.10;31.86;102018.91;4226577;28;19919;-65
2023/12/20 08:15:10;;;;;;;;;;;;;;;21.94;31.95;101995.78;4230758;28;19931;-63
2023/12/20 08:17:12;;;;;;;;;;;;;;;22.12;31.78;102022.38;4227636;28;19926;-65
2023/12/20 08:19:13;;;;;;;;;;;;;;;22.12;31.48;102017.00;4230645;28;19930;-65
2023/12/20 08:21:15;;;;;;;;;;;;;;;22.12;31.74;102015.16;4234027;27;20310;-63
2023/12/20 08:23:17;;;;;;;;;;;;;;;22.09;31.62;102012.69;4229708;27;19920;-65
2023/12/20 08:25:18;;;;;;;;;;;;;;;22.08;31.64;102015.47;4236231;27;19924;-66
2023/12/20 08:27:20;;;;;;;;;;;;;;;22.07;31.66;102009.25;4226752;28;20020;-64
2023/12/20 08:29:21;;;;;;;;;;;;;;;22.04;31.30;102017.47;4239601;27;19923;-66
2023/12/20 08:31:23;;;;;;;;;;;;;;;22.03;31.68;102018.47;4249058;27;20216;-67
2023/12/20 08:33:25;;;;;;;;;;;;;;;21.99;31.59;102016.91;4233507;28;20445;-65
2023/12/20 08:35:26;;;;;;;;;;;;;;;22.00;31.58;102015.97;4232189;28;19953;-65
2023/12/20 08:37:28;;;;;;;;;;;;;;;22.03;31.44;102018.47;4237209;27;19919;-65
2023/12/20 08:39:29;;;;;;;;;;;;;;;22.05;31.13;102016.53;4250267;27;19927;-65
2023/12/20 08:41:31;;;;;;;;;;;;;;;22.07;31.41;102025.31;4235332;27;19961;-65
2023/12/20 08:43:35;;;;;;;;;;;;;;;22.06;31.30;102022.75;4233192;28;20018;-65
2023/12/20 08:45:38;;;;;;;;;;;;;;;22.01;31.18;102015.84;4233157;28;19964;-65
2023/12/20 08:47:41;;;;;;;;;;;;;;;22.01;31.37;102023.88;4227995;27;19919;-64
2023/12/20 08:49:43;;;;;;;;;;;;;;;22.00;31.60;102024.00;4245304;27;20413;-64
2023/12/20 08:51:45;;;;;;;;;;;;;;;21.97;31.41;102024.19;4249601;27;19969;-64
2023/12/20 08:53:47;;;;;;;;;;;;;;;21.97;31.57;102025.06;4249931;27;19925;-64
2023/12/20 08:55:49;;;;;;;;;;;;;;;21.99;31.40;102027.63;4249836;27;19923;-64
2023/12/20 08:57:50;;;;;;;;;;;;;;;22.02;31.57;102032.81;4241519;27;19920;-64
2023/12/20 08:59:52;;;;;;;;;;;;;;;22.05;31.56;102037.09;4233088;28;19947;-64
2023/12/20 09:01:54;;;;;;;;;;;;;;;22.05;31.43;102037.94;4233039;28;19920;-64
2023/12/20 09:03:56;;;;;;;;;;;;;;;22.05;31.62;102031.75;4233026;28;19920;-64
2023/12/20 09:05:58;;;;;;;;;;;;;;;22.07;31.63;102037.88;4232751;28;20026;-65
2023/12/20 09:07:59;;;;;;;;;;;;;;;22.07;31.42;102037.88;4232489;28;19926;-64
2023/12/20 09:10:01;;;;;;;;;;;;;;;22.06;31.52;102033.47;4232940;28;19926;-65
2023/12/20 09:12:02;;;;;;;;;;;;;;;22.04;31.58;102036.22;4232584;28;19924;-64
2023/12/20 09:14:04;;;;;;;;;;;;;;;22.01;31.59;102031.06;4232927;28;20438;-64
2023/12/20 09:16:06;;;;;;;;;;;;;;;22.04;31.58;102030.03;4232817;28;19920;-65
2023/12/20 09:18:08;;;;;;;;;;;;;;;22.05;31.45;102027.22;4232428;28;19919;-65
2023/12/20 09:20:10;;;;;;;;;;;;;;;22.10;31.72;102024.28;4232622;28;19919;-64
2023/12/20 09:22:12;;;;;;;;;;;;;;;22.13;31.53;102013.38;4231748;28;19920;-64
2023/12/20 09:24:13;;;;;;;;;;;;;;;22.15;31.47;102009.63;4232609;28;19920;-64
2023/12/20 09:26:15;;;;;;;;;;;;;;;22.16;31.41;102014.03;4232511;28;20007;-64
2023/12/20 09:28:17;;;;;;;;;;;;;;;22.17;31.54;102020.25;4233834;27;19931;-64
2023/12/20 09:30:19;;;;;;;;;;;;;;;22.15;31.65;102017.66;4249610;27;19927;-64
2023/12/20 09:32:29;;;;;;;;;;;;;;;22.15;31.70;102032.88;4236090;27;19997;-64
2023/12/20 09:34:31;;;;;;;;;;;;;;;22.13;31.41;102024.09;4232343;28;19958;-64
2023/12/20 09:36:35;;;;;;;;;;;;;;;22.13;31.60;102032.97;4230500;28;19923;-64
2023/12/20 09:38:37;;;;;;;;;;;;;;;22.14;31.68;102031.13;4232490;28;20370;-65
2023/12/20 09:40:41;;;;;;;;;;;;;;;22.16;31.58;102029.22;4232142;28;20342;-64
2023/12/20 09:42:51;;;;;;;;;;;;;;;22.17;31.58;102031.81;4232083;28;19923;-64
2023/12/20 09:44:53;;;;;;;;;;;;;;;22.18;31.82;102041.56;4232004;28;19924;-65
2023/12/20 09:46:55;;;;;;;;;;;;;;;22.18;31.63;102030.84;4232368;28;19943;-65
2023/12/20 09:48:58;;;;;;;;;;;;;;;22.20;31.55;102040.63;4232153;28;19926;-64
2023/12/20 09:50:59;;;;;;;;;;;;;;;22.18;31.70;102046.09;4231891;28;19920;-65
2023/12/20 09:53:02;;;;;;;;;;;;;;;22.16;31.81;102045.31;4231687;28;19957;-64
2023/12/20 09:55:05;;;;;;;;;;;;;;;22.15;31.69;102043.59;4231950;28;19923;-64
2023/12/20 09:57:07;;;;;;;;;;;;;;;22.14;31.63;102047.22;4232090;28;20391;-64
2023/12/20 09:59:08;;;;;;;;;;;;;;;22.15;31.86;102046.25;4232004;28;20014;-64
2023/12/20 10:01:10;;;;;;;;;;;;;;;22.15;31.73;102039.09;4232063;28;20010;-64
2023/12/20 10:03:13;;;;;;;;;;;;;;;22.18;31.87;102043.41;4231949;28;19971;-64
2023/12/20 10:05:20;;;;;;;;;;;;;;;22.21;31.87;102048.53;4231584;28;19920;-65
2023/12/20 10:07:22;;;;;;;;;;;;;;;22.23;31.74;102040.44;4231694;28;19920;-64
2023/12/20 10:09:24;;;;;;;;;;;;;;;22.21;32.06;102029.78;4231774;28;19926;-65
2023/12/20 10:11:27;;;;;;;;;;;;;;;22.12;32.08;102023.22;4231800;28;19920;-65
2023/12/20 10:13:29;;;;;;;;;;;;;;;22.20;31.94;102043.28;4231880;28;19943;-64
2023/12/20 10:15:32;;;;;;;;;;;;;;;22.16;31.89;102029.22;4231656;28;19919;-64
2023/12/20 10:17:33;;;;;;;;;;;;;;;22.18;31.57;102032.69;4231490;28;19923;-64
2023/12/20 10:19:35;;;;;;;;;;;;;;;22.18;31.74;102041.56;4231103;28;19989;-64
2023/12/20 10:21:37;;;;;;;;;;;;;;;22.20;31.93;102030.78;4231798;28;19920;-64
2023/12/20 10:23:43;;;;;;;;;;;;;;;22.21;31.81;102028.94;4231637;28;19923;-65
2023/12/20 10:25:57;;;;;;;;;;;;;;;22.23;32.14;102029.72;4231725;28;20390;-64